createdAt,value
2019-02-23T00:01:17.098Z,15.88
2019-02-23T00:03:47.598Z,15.75
2019-02-23T00:06:28.924Z,15.10
2019-02-23T00:08:50.298Z,15.15
2019-02-23T00:11:23.479Z,16.25
2019-02-23T00:13:54.090Z,16.23
2019-02-23T00:16:25.930Z,15.93
2019-02-23T00:18:58.249Z,15.93
2019-02-23T00:21:28.658Z,16.07
2019-02-23T00:23:58.828Z,16.77
2019-02-23T00:26:29.154Z,17.07
2019-02-23T00:29:02.365Z,14.80
2019-02-23T00:31:32.677Z,17.17
2019-02-23T00:34:03.305Z,17.67
2019-02-23T00:36:33.557Z,16.30
2019-02-23T00:39:05.023Z,16.95
2019-02-23T00:41:35.435Z,18.50
2019-02-23T00:44:05.775Z,17.35
2019-02-23T00:46:36.593Z,17.90
2019-02-23T00:49:07.260Z,17.23
2019-02-23T00:51:37.916Z,17.45
2019-02-23T00:54:08.343Z,16.40
2019-02-23T00:56:38.833Z,17.80
2019-02-23T00:59:09.276Z,21.33
2019-02-23T01:01:39.668Z,19.40
2019-02-23T01:04:10.519Z,18.80
2019-02-23T01:06:40.986Z,18.98
2019-02-23T01:09:11.688Z,19.25
2019-02-23T01:11:42.135Z,21.30
2019-02-23T01:14:13.123Z,18.98
2019-02-23T01:16:43.837Z,17.98
2019-02-23T01:19:14.690Z,19.57
2019-02-23T01:21:45.130Z,20.15
2019-02-23T01:24:15.569Z,19.12
2019-02-23T01:26:46.218Z,19.12
2019-02-23T01:29:16.525Z,19.50
2019-02-23T01:31:48.955Z,20.62
2019-02-23T01:34:20.731Z,19.90
2019-02-23T01:36:51.093Z,20.45
2019-02-23T01:39:22.811Z,19.80
2019-02-23T01:41:56.794Z,17.75
2019-02-23T01:44:27.723Z,19.60
2019-02-23T01:46:58.092Z,19.20
2019-02-23T01:49:28.562Z,18.80
2019-02-23T01:51:59.472Z,19.07
2019-02-23T01:54:30.110Z,18.48
2019-02-23T01:57:01.149Z,19.57
2019-02-23T01:59:31.431Z,18.65
2019-02-23T02:02:01.759Z,18.60
2019-02-23T02:04:34.009Z,18.92
2019-02-23T02:07:04.514Z,19.35
2019-02-23T02:09:35.020Z,20.23
2019-02-23T02:12:06.938Z,18.80
2019-02-23T02:14:37.950Z,19.42
2019-02-23T02:17:08.295Z,20.37
2019-02-23T02:19:38.674Z,20.35
2019-02-23T02:22:10.011Z,19.65
2019-02-23T02:24:40.766Z,20.40
2019-02-23T02:27:11.392Z,19.48
2019-02-23T02:29:41.859Z,19.35
2019-02-23T02:32:12.784Z,19.25
2019-02-23T02:34:43.232Z,20.08
2019-02-23T02:37:13.646Z,19.05
2019-02-23T02:39:44.178Z,22.30
2019-02-23T02:42:15.700Z,19.25
2019-02-23T02:44:46.471Z,20.50
2019-02-23T02:47:16.712Z,19.73
2019-02-23T02:49:47.329Z,18.73
2019-02-23T02:52:17.639Z,19.20
2019-02-23T02:54:48.000Z,22.75
2019-02-23T02:57:18.390Z,19.65
2019-02-23T02:59:49.096Z,19.80
2019-02-23T03:02:20.337Z,19.32
2019-02-23T03:04:51.482Z,21.45
2019-02-23T03:07:22.220Z,18.50
2019-02-23T03:09:52.802Z,20.80
2019-02-23T03:12:23.619Z,19.75
2019-02-23T03:14:54.204Z,20.50
2019-02-23T03:17:24.441Z,19.90
2019-02-23T03:19:55.038Z,21.87
2019-02-23T03:22:25.231Z,20.72
2019-02-23T03:24:55.702Z,20.17
2019-02-23T03:27:25.961Z,19.05
2019-02-23T03:29:56.267Z,21.73
2019-02-23T03:32:26.466Z,19.15
2019-02-23T03:34:56.788Z,18.87
2019-02-23T03:37:27.291Z,21.27
2019-02-23T03:39:58.163Z,19.57
2019-02-23T03:42:28.816Z,20.45
2019-02-23T03:44:59.145Z,20.55
2019-02-23T03:47:29.983Z,20.48
2019-02-23T03:50:00.336Z,22.10
2019-02-23T03:52:30.659Z,24.77
2019-02-23T03:55:01.405Z,20.45
2019-02-23T03:57:31.694Z,21.23
2019-02-23T04:00:02.264Z,21.75
2019-02-23T04:02:32.620Z,19.75
2019-02-23T04:05:03.170Z,20.57
2019-02-23T04:07:33.485Z,20.55
2019-02-23T04:10:06.425Z,20.97
2019-02-23T04:12:36.690Z,19.82
2019-02-23T04:15:07.304Z,21.37
2019-02-23T04:17:38.451Z,19.60
2019-02-23T04:20:08.796Z,21.17
2019-02-23T04:22:39.386Z,22.52
2019-02-23T04:25:09.719Z,21.35
2019-02-23T04:27:40.064Z,20.02
2019-02-23T04:30:10.500Z,22.67
2019-02-23T04:32:40.789Z,21.10
2019-02-23T04:35:11.368Z,21.20
2019-02-23T04:37:41.705Z,21.35
2019-02-23T04:40:12.589Z,21.60
2019-02-23T04:42:42.871Z,21.35
2019-02-23T04:45:13.318Z,22.22
2019-02-23T04:47:43.633Z,20.75
2019-02-23T04:50:14.039Z,21.40
2019-02-23T04:52:44.622Z,21.50
2019-02-23T04:55:15.014Z,20.50
2019-02-23T04:57:45.212Z,20.27
2019-02-23T05:00:15.839Z,20.68
2019-02-23T05:02:46.089Z,21.95
2019-02-23T05:05:17.039Z,20.15
2019-02-23T05:07:47.370Z,21.12
2019-02-23T05:10:19.824Z,21.48
2019-02-23T05:12:50.351Z,21.25
2019-02-23T05:15:25.244Z,21.42
2019-02-23T05:17:55.844Z,20.25
2019-02-23T05:20:26.394Z,21.23
2019-02-23T05:22:56.977Z,23.00
2019-02-23T05:25:27.346Z,20.88
2019-02-23T05:27:57.621Z,20.95
2019-02-23T05:30:28.033Z,21.93
2019-02-23T05:32:58.755Z,20.32
2019-02-23T05:35:29.388Z,21.07
2019-02-23T05:38:00.127Z,21.75
2019-02-23T05:40:30.844Z,23.07
2019-02-23T05:43:01.644Z,22.22
2019-02-23T05:45:32.473Z,21.68
2019-02-23T05:48:02.806Z,20.97
2019-02-23T05:50:33.040Z,22.52
2019-02-23T05:53:03.286Z,21.85
2019-02-23T05:55:33.621Z,21.48
2019-02-23T05:58:03.993Z,21.93
2019-02-23T06:00:34.427Z,21.45
2019-02-23T06:03:02.425Z,25.10
2019-02-23T06:05:32.940Z,25.90
2019-02-23T06:08:03.525Z,21.50
2019-02-23T06:10:34.159Z,21.52
2019-02-23T06:13:04.876Z,21.55
2019-02-23T06:15:35.201Z,23.40
2019-02-23T06:18:05.562Z,22.48
2019-02-23T06:20:36.239Z,21.37
2019-02-23T06:23:06.746Z,22.85
2019-02-23T06:25:37.075Z,23.40
2019-02-23T06:28:07.577Z,22.25
2019-02-23T06:30:37.880Z,24.92
2019-02-23T06:33:08.068Z,25.55
2019-02-23T06:35:38.592Z,22.27
2019-02-23T06:38:09.282Z,22.02
2019-02-23T06:40:39.637Z,21.52
2019-02-23T06:43:09.943Z,21.82
2019-02-23T06:45:40.293Z,22.17
2019-02-23T06:48:10.660Z,21.07
2019-02-23T06:50:40.904Z,22.42
2019-02-23T06:53:12.078Z,22.60
2019-02-23T06:55:42.689Z,25.08
2019-02-23T06:58:13.691Z,22.77
2019-02-23T07:00:44.212Z,22.67
2019-02-23T07:03:14.837Z,22.48
2019-02-23T07:05:45.653Z,26.35
2019-02-23T07:08:16.368Z,21.95
2019-02-23T07:10:46.692Z,25.00
2019-02-23T07:13:17.007Z,20.23
2019-02-23T07:15:47.494Z,22.65
2019-02-23T07:18:17.776Z,22.73
2019-02-23T07:20:48.368Z,22.98
2019-02-23T07:23:19.159Z,23.32
2019-02-23T07:25:50.301Z,22.00
2019-02-23T07:28:21.177Z,23.30
2019-02-23T07:30:51.648Z,24.63
2019-02-23T07:33:32.431Z,22.27
2019-02-23T07:35:54.083Z,24.15
2019-02-23T07:38:24.625Z,22.60
2019-02-23T07:40:55.042Z,22.52
2019-02-23T07:43:25.440Z,22.80
2019-02-23T07:45:55.591Z,25.17
2019-02-23T07:48:25.963Z,23.40
2019-02-23T07:50:56.796Z,23.45
2019-02-23T07:53:27.225Z,21.85
2019-02-23T07:56:00.806Z,21.80
2019-02-23T07:58:32.150Z,22.50
2019-02-23T08:01:03.126Z,22.77
2019-02-23T08:03:34.067Z,22.75
2019-02-23T08:06:06.140Z,22.07
2019-02-23T08:08:36.620Z,23.25
2019-02-23T08:11:09.168Z,22.95
2019-02-23T08:13:40.710Z,20.97
2019-02-23T08:16:16.136Z,23.52
2019-02-23T08:18:46.488Z,24.07
2019-02-23T08:21:16.957Z,22.37
2019-02-23T08:23:47.251Z,23.10
2019-02-23T08:26:17.667Z,21.68
2019-02-23T08:28:48.027Z,22.82
2019-02-23T08:31:18.445Z,23.60
2019-02-23T08:33:50.181Z,22.80
2019-02-23T08:36:20.795Z,22.95
2019-02-23T08:38:52.502Z,23.38
2019-02-23T08:41:22.939Z,23.65
2019-02-23T08:43:56.393Z,23.75
2019-02-23T08:46:27.553Z,22.95
2019-02-23T08:48:59.432Z,21.27
2019-02-23T08:51:30.694Z,22.55
2019-02-23T08:54:01.413Z,21.17
2019-02-23T08:56:32.013Z,23.65
2019-02-23T08:59:02.562Z,21.77
2019-02-23T09:01:33.045Z,23.60
2019-02-23T09:04:07.239Z,22.65
2019-02-23T09:06:37.575Z,22.75
2019-02-23T09:09:08.432Z,20.82
2019-02-23T09:11:38.810Z,22.37
2019-02-23T09:14:09.123Z,21.25
2019-02-23T09:16:40.123Z,21.97
2019-02-23T09:19:10.893Z,23.05
2019-02-23T09:21:42.067Z,19.92
2019-02-23T09:24:12.703Z,21.05
2019-02-23T09:26:43.540Z,21.07
2019-02-23T09:29:17.276Z,21.85
2019-02-23T09:31:48.918Z,20.88
2019-02-23T09:34:20.244Z,21.40
2019-02-23T09:36:50.883Z,21.12
2019-02-23T09:39:21.643Z,21.47
2019-02-23T09:41:55.057Z,20.02
2019-02-23T09:44:25.495Z,18.50
2019-02-23T09:46:56.386Z,15.40
2019-02-23T09:49:28.836Z,15.13
2019-02-23T09:51:59.396Z,16.53
2019-02-23T09:54:30.761Z,16.70
2019-02-23T09:57:06.673Z,17.63
2019-02-23T09:59:40.028Z,17.70
2019-02-23T10:02:11.115Z,16.93
2019-02-23T10:04:41.973Z,17.07
2019-02-23T10:07:15.052Z,19.60
2019-02-23T10:09:45.530Z,18.20
2019-02-23T10:12:15.959Z,18.20
2019-02-23T10:14:47.489Z,56.93
2019-02-23T10:17:18.323Z,66.17
2019-02-23T10:19:48.776Z,19.87
2019-02-23T10:22:19.650Z,18.30
2019-02-23T10:24:52.109Z,17.83
2019-02-23T10:27:22.426Z,18.60
2019-02-23T10:29:56.053Z,16.20
2019-02-23T10:32:26.716Z,15.93
2019-02-23T10:34:57.269Z,17.07
2019-02-23T10:37:31.982Z,16.30
2019-02-23T10:40:03.740Z,17.60
2019-02-23T10:42:34.226Z,17.87
2019-02-23T10:45:06.347Z,18.00
2019-02-23T10:47:36.828Z,17.63
2019-02-23T10:50:11.255Z,17.00
2019-02-23T10:52:42.390Z,17.07
2019-02-23T10:55:13.778Z,17.53
2019-02-23T10:57:45.273Z,16.47
2019-02-23T11:00:19.577Z,15.40
2019-02-23T11:02:50.715Z,16.90
2019-02-23T11:05:21.974Z,16.73
2019-02-23T11:07:52.299Z,16.57
2019-02-23T11:10:22.860Z,16.37
2019-02-23T11:12:54.457Z,14.33
2019-02-23T11:15:25.103Z,18.27
2019-02-23T11:18:00.083Z,16.10
2019-02-23T11:20:29.104Z,14.63
2019-02-23T11:23:00.488Z,17.33
2019-02-23T11:25:32.052Z,15.70
2019-02-23T11:28:05.708Z,15.00
2019-02-23T11:30:37.504Z,14.63
2019-02-23T11:33:08.537Z,15.20
2019-02-23T11:35:39.393Z,15.30
2019-02-23T11:38:10.857Z,17.20
2019-02-23T11:40:41.950Z,14.40
2019-02-23T11:43:12.319Z,14.70
2019-02-23T11:45:43.135Z,15.23
2019-02-23T11:48:13.859Z,13.73
2019-02-23T11:50:44.365Z,13.40
2019-02-23T11:53:15.209Z,12.43
2019-02-23T11:55:45.607Z,12.47
2019-02-23T11:58:16.022Z,13.87
2019-02-23T12:00:46.698Z,11.90
2019-02-23T12:03:17.047Z,13.10
2019-02-23T12:05:47.516Z,12.40
2019-02-23T12:08:18.128Z,11.83
2019-02-23T12:10:48.489Z,10.13
2019-02-23T12:13:19.023Z,15.10
2019-02-23T12:15:49.423Z,10.03
2019-02-23T12:18:19.713Z,12.13
2019-02-23T12:20:50.093Z,12.67
2019-02-23T12:23:20.850Z,13.47
2019-02-23T12:25:54.163Z,12.97
2019-02-23T12:28:25.567Z,11.57
2019-02-23T12:30:57.254Z,11.80
2019-02-23T12:33:27.595Z,11.60
2019-02-23T12:35:59.009Z,13.63
2019-02-23T12:38:34.296Z,12.07
2019-02-23T12:41:06.168Z,11.03
2019-02-23T12:43:37.284Z,9.93
2019-02-23T12:46:08.811Z,9.83
2019-02-23T12:48:39.274Z,9.10
2019-02-23T12:51:12.983Z,7.27
2019-02-23T12:53:43.342Z,9.23
2019-02-23T12:56:14.503Z,8.70
2019-02-23T12:58:45.532Z,29.07
2019-02-23T13:01:19.043Z,12.73
2019-02-23T13:03:49.488Z,11.67
2019-02-23T13:06:20.934Z,9.80
2019-02-23T13:09:20.200Z,11.00
2019-02-23T13:12:04.563Z,10.13
2019-02-23T13:14:45.938Z,9.50
2019-02-23T13:17:26.041Z,9.40
2019-02-23T13:20:41.975Z,8.80
2019-02-23T13:23:40.372Z,15.30
2019-02-23T13:26:32.987Z,13.13
2019-02-23T13:29:39.361Z,10.73
2019-02-23T13:32:45.315Z,8.90
2019-02-23T13:35:46.358Z,8.43
2019-02-23T13:39:03.701Z,8.53
2019-02-23T13:41:48.151Z,9.47
2019-02-23T13:44:57.995Z,11.60
2019-02-23T13:48:04.009Z,11.03
2019-02-23T13:51:11.932Z,11.33
2019-02-23T13:54:11.596Z,9.90
2019-02-23T13:57:34.896Z,11.13
2019-02-23T14:01:01.829Z,10.03
2019-02-23T14:04:20.367Z,9.20
2019-02-23T14:07:10.958Z,10.87
2019-02-23T14:10:18.589Z,9.00
2019-02-23T14:13:28.484Z,8.33
2019-02-23T14:16:43.738Z,9.53
2019-02-23T14:19:41.676Z,8.63
2019-02-23T14:22:52.472Z,7.47
2019-02-23T14:25:50.599Z,6.73
2019-02-23T14:29:02.455Z,6.93
2019-02-23T14:32:00.536Z,5.17
2019-02-23T14:34:51.797Z,5.30
2019-02-23T14:38:03.537Z,5.40
2019-02-23T14:41:20.564Z,5.10
2019-02-23T14:44:25.007Z,4.80
2019-02-23T14:47:42.324Z,5.73
2019-02-23T14:50:39.675Z,5.00
2019-02-23T14:53:56.448Z,4.80
2019-02-23T14:56:51.981Z,4.87
2019-02-23T14:59:51.360Z,5.20
2019-02-23T15:02:58.039Z,5.00
2019-02-23T15:05:52.524Z,4.60
2019-02-23T15:09:08.697Z,3.90
2019-02-23T15:12:02.537Z,3.43
2019-02-23T15:15:11.608Z,3.57
2019-02-23T15:18:00.063Z,3.67
2019-02-23T15:20:56.674Z,3.50
2019-02-23T15:24:12.101Z,3.70
2019-02-23T15:27:40.263Z,4.30
2019-02-23T15:30:33.247Z,4.33
2019-02-23T15:33:39.131Z,4.47
2019-02-23T15:37:00.731Z,4.53
2019-02-23T15:39:53.500Z,4.50
2019-02-23T15:43:19.200Z,4.40
2019-02-23T15:46:19.698Z,4.23
2019-02-23T15:49:26.420Z,4.63
2019-02-23T15:51:57.330Z,4.37
2019-02-23T15:54:29.297Z,3.50
2019-02-23T15:57:00.405Z,4.17
2019-02-23T15:59:32.030Z,3.87
2019-02-23T16:02:02.949Z,4.50
2019-02-23T16:04:33.382Z,4.20
2019-02-23T16:07:07.291Z,3.37
2019-02-23T16:09:38.710Z,3.97
2019-02-23T16:12:09.263Z,4.33
2019-02-23T16:14:40.393Z,4.27
2019-02-23T16:17:11.284Z,3.83
2019-02-23T16:19:42.328Z,4.67
2019-02-23T16:22:10.469Z,5.37
2019-02-23T16:24:40.891Z,5.17
2019-02-23T16:27:11.247Z,6.17
2019-02-23T16:29:42.002Z,5.40
2019-02-23T16:32:12.935Z,5.90
2019-02-23T16:34:43.803Z,5.80
2019-02-23T16:37:14.838Z,7.70
2019-02-23T16:39:45.452Z,7.07
2019-02-23T16:42:17.088Z,7.47
2019-02-23T16:44:47.803Z,6.77
2019-02-23T16:47:18.257Z,5.33
2019-02-23T16:49:49.566Z,5.43
2019-02-23T16:52:21.016Z,5.67
2019-02-23T16:54:52.736Z,5.67
2019-02-23T16:57:23.600Z,5.40
2019-02-23T16:59:55.032Z,4.30
2019-02-23T17:02:30.650Z,4.93
2019-02-23T17:05:02.859Z,4.73
2019-02-23T17:07:33.639Z,4.47
2019-02-23T17:10:08.506Z,4.70
2019-02-23T17:12:38.948Z,4.03
2019-02-23T17:15:10.645Z,4.97
2019-02-23T17:17:41.327Z,4.53
2019-02-23T17:20:12.086Z,4.73
2019-02-23T17:22:42.782Z,4.70
2019-02-23T17:25:14.099Z,5.57
2019-02-23T17:27:44.869Z,4.60
2019-02-23T17:30:15.355Z,5.83
2019-02-23T17:32:45.969Z,4.23
2019-02-23T17:35:16.788Z,20.80
2019-02-23T17:37:47.737Z,16.23
2019-02-23T17:40:19.121Z,9.83
2019-02-23T17:42:49.570Z,6.67
2019-02-23T17:45:20.958Z,9.10
2019-02-23T17:47:51.498Z,5.70
2019-02-23T17:50:24.668Z,5.67
2019-02-23T17:52:59.424Z,6.17
2019-02-23T17:55:30.382Z,6.17
2019-02-23T17:58:01.116Z,6.40
2019-02-23T18:00:31.783Z,7.57
2019-02-23T18:03:02.263Z,6.63
2019-02-23T18:05:33.607Z,6.53
2019-02-23T18:08:04.475Z,6.20
2019-02-23T18:10:36.421Z,7.20
2019-02-23T18:13:07.515Z,7.07
2019-02-23T18:15:39.936Z,7.60
2019-02-23T18:18:10.407Z,6.20
2019-02-23T18:20:41.187Z,6.63
2019-02-23T18:23:11.809Z,6.80
2019-02-23T18:25:43.418Z,6.70
2019-02-23T18:28:14.489Z,6.13
2019-02-23T18:30:45.100Z,7.43
2019-02-23T18:33:16.532Z,6.90
2019-02-23T18:35:51.415Z,8.27
2019-02-23T18:38:22.865Z,6.63
2019-02-23T18:40:54.658Z,7.47
2019-02-23T18:43:25.151Z,13.23
2019-02-23T18:45:56.278Z,15.83
2019-02-23T18:48:28.330Z,17.10
2019-02-23T18:50:58.709Z,17.73
2019-02-23T18:53:33.016Z,15.50
2019-02-23T18:56:04.847Z,13.97
2019-02-23T18:58:38.570Z,13.70
2019-02-23T19:01:09.718Z,14.70
2019-02-23T19:03:41.440Z,12.87
2019-02-23T19:06:18.499Z,11.53
2019-02-23T19:08:50.443Z,11.33
2019-02-23T19:11:31.172Z,12.90
2019-02-23T19:14:04.761Z,12.50
2019-02-23T19:16:40.580Z,10.47
2019-02-23T19:19:11.894Z,13.37
2019-02-23T19:21:44.607Z,12.53
2019-02-23T19:24:16.565Z,14.13
2019-02-23T19:26:47.968Z,9.27
2019-02-23T19:29:19.530Z,12.60
2019-02-23T19:31:51.528Z,11.60
2019-02-23T19:34:22.960Z,10.53
2019-02-23T19:36:55.175Z,11.50
2019-02-23T19:39:25.702Z,12.90
2019-02-23T19:41:56.381Z,12.20
2019-02-23T19:44:26.792Z,14.00
2019-02-23T19:47:02.728Z,18.73
2019-02-23T19:49:33.456Z,14.87
2019-02-23T19:52:07.192Z,14.57
2019-02-23T19:54:38.026Z,14.50
2019-02-23T19:57:08.939Z,16.53
2019-02-23T19:59:40.507Z,20.70
2019-02-23T20:02:12.078Z,18.48
2019-02-23T20:04:43.053Z,16.40
2019-02-23T20:07:13.649Z,17.98
2019-02-23T20:09:44.573Z,14.63
2019-02-23T20:12:17.360Z,13.53
2019-02-23T20:14:50.717Z,13.38
2019-02-23T20:17:22.220Z,13.22
2019-02-23T20:19:52.847Z,12.78
2019-02-23T20:22:24.635Z,13.22
2019-02-23T20:24:55.469Z,14.18
2019-02-23T20:27:26.100Z,9.90
2019-02-23T20:29:56.641Z,8.65
2019-02-23T20:32:28.746Z,11.25
2019-02-23T20:34:59.204Z,9.43
2019-02-23T20:37:29.892Z,11.68
2019-02-23T20:40:01.337Z,9.73
2019-02-23T20:42:32.779Z,7.47
2019-02-23T20:45:03.588Z,9.05
2019-02-23T20:47:34.465Z,7.35
2019-02-23T20:50:05.907Z,7.60
2019-02-23T20:52:38.975Z,7.17
2019-02-23T20:55:09.767Z,8.45
2019-02-23T20:57:41.138Z,6.22
2019-02-23T21:00:14.864Z,8.23
2019-02-23T21:02:46.448Z,7.42
2019-02-23T21:05:17.289Z,5.80
2019-02-23T21:07:47.777Z,6.20
2019-02-23T21:10:18.589Z,6.90
2019-02-23T21:12:49.257Z,7.12
2019-02-23T21:15:19.677Z,6.00
2019-02-23T21:17:50.556Z,6.10
2019-02-23T21:20:21.354Z,5.50
2019-02-23T21:22:51.753Z,6.22
2019-02-23T21:25:22.499Z,7.17
2019-02-23T21:27:54.571Z,5.87
2019-02-23T21:30:25.522Z,7.17
2019-02-23T21:32:56.026Z,6.55
2019-02-23T21:35:26.740Z,7.80
2019-02-23T21:37:57.265Z,6.30
2019-02-23T21:40:28.048Z,6.12
2019-02-23T21:42:59.140Z,7.47
2019-02-23T21:45:30.112Z,7.62
2019-02-23T21:48:01.773Z,5.70
2019-02-23T21:50:32.548Z,6.47
2019-02-23T21:53:04.028Z,5.90
2019-02-23T21:55:34.460Z,5.95
2019-02-23T21:58:05.542Z,5.97
2019-02-23T22:00:37.110Z,5.22
2019-02-23T22:03:08.176Z,6.42
2019-02-23T22:05:38.877Z,6.85
2019-02-23T22:08:09.566Z,6.28
2019-02-23T22:10:40.158Z,6.87
2019-02-23T22:13:11.326Z,6.90
2019-02-23T22:15:41.809Z,6.50
2019-02-23T22:18:13.025Z,8.15
2019-02-23T22:20:45.372Z,6.62
2019-02-23T22:23:15.980Z,6.55
2019-02-23T22:25:46.786Z,8.70
2019-02-23T22:28:18.291Z,5.65
2019-02-23T22:30:49.868Z,8.33
2019-02-23T22:33:21.225Z,5.95
2019-02-23T22:35:52.010Z,7.35
2019-02-23T22:38:22.609Z,6.50
2019-02-23T22:40:54.989Z,7.15
2019-02-23T22:43:25.728Z,6.33
2019-02-23T22:45:56.944Z,5.92
2019-02-23T22:48:28.018Z,6.08
2019-02-23T22:50:58.815Z,6.17
2019-02-23T22:53:29.543Z,6.05
2019-02-23T22:56:00.839Z,5.75
2019-02-23T22:58:31.502Z,5.28
2019-02-23T23:01:04.197Z,5.17
2019-02-23T23:03:37.076Z,6.87
2019-02-23T23:06:08.149Z,6.08
2019-02-23T23:08:38.575Z,5.80
2019-02-23T23:11:09.808Z,5.50
2019-02-23T23:13:40.557Z,5.55
2019-02-23T23:16:11.676Z,5.45
2019-02-23T23:18:42.447Z,5.50
2019-02-23T23:21:12.975Z,6.40
2019-02-23T23:23:42.227Z,6.22
2019-02-23T23:26:12.735Z,5.72
2019-02-23T23:28:46.558Z,6.35
2019-02-23T23:31:18.522Z,5.90
2019-02-23T23:33:50.077Z,6.35
2019-02-23T23:36:21.438Z,6.35
2019-02-23T23:38:52.839Z,6.30
2019-02-23T23:41:23.888Z,6.10
2019-02-23T23:43:54.519Z,8.68
2019-02-23T23:46:26.614Z,6.10
2019-02-23T23:48:59.141Z,5.62
2019-02-23T23:51:30.532Z,6.00
2019-02-23T23:54:01.292Z,5.30
2019-02-23T23:56:32.804Z,6.22
2019-02-23T23:59:04.037Z,6.10
